Time;durP1;ratioP1;P1;durP2;ratioP2;P2;SDS_P1;SDS_P2;PMS_P1;PMS_P2;Temp;Humidity;BMP_temperature;BMP_pressure;BME280_temperature;BME280_humidity;BME280_pressure;Samples;Min_cycle;Max_cycle;Signal;HPM_P1;HPM_P2
2022/03/28 00:00:50;;;;;;;0.00;0.00;;;;;;;19.99;32.57;102659.56;10523708;28;20070;-75
2022/03/28 00:05:51;;;;;;;0.00;0.00;;;;;;;18.65;35.26;102646.72;10541304;28;20556;-75
2022/03/28 00:10:54;;;;;;;0.00;0.00;;;;;;;19.22;34.42;102639.13;10541298;28;20437;-76
2022/03/28 00:15:55;;;;;;;0.00;0.00;;;;;;;20.29;32.42;102644.28;10541247;28;20063;-75
2022/03/28 00:20:57;;;;;;;0.00;0.00;;;;;;;22.13;29.41;102639.91;10522834;28;20516;-75
2022/03/28 00:26:00;;;;;;;0.00;0.00;;;;;;;18.67;34.31;102642.44;10522539;28;20080;-75
2022/03/28 00:31:02;;;;;;;0.00;0.00;;;;;;;18.81;33.48;102636.59;10540347;28;20544;-74
2022/03/28 00:36:04;;;;;;;0.00;0.00;;;;;;;19.02;34.29;102613.53;10522449;28;20074;-75
2022/03/28 00:41:06;;;;;;;0.20;0.20;;;;;;;18.64;35.19;102611.06;10540298;28;20085;-75
2022/03/28 00:46:08;;;;;;;0.00;0.00;;;;;;;19.51;33.45;102615.22;10540290;28;20040;-76
2022/03/28 00:51:11;;;;;;;0.00;0.00;;;;;;;18.14;36.20;102621.31;10540114;28;20036;-75
2022/03/28 00:56:13;;;;;;;0.00;0.00;;;;;;;19.24;34.13;102613.94;10521915;28;20044;-76
2022/03/28 01:01:15;;;;;;;0.00;0.00;;;;;;;17.79;36.90;102613.53;10522265;28;20068;-76
2022/03/28 01:06:17;;;;;;;0.00;0.00;;;;;;;18.31;35.92;102609.50;10540996;28;20036;-75
2022/03/28 01:11:20;;;;;;;0.00;0.00;;;;;;;18.21;35.93;102603.22;10548311;28;20076;-75
2022/03/28 01:16:21;;;;;;;0.00;0.00;;;;;;;17.91;36.47;102604.28;10548213;28;20131;-75
2022/03/28 01:21:23;;;;;;;0.00;0.00;;;;;;;17.79;36.52;102597.91;10548088;28;20040;-75
2022/03/28 01:26:25;;;;;;;0.00;0.00;;;;;;;18.51;35.16;102582.94;10547801;28;20048;-75
2022/03/28 01:31:26;;;;;;;0.00;0.00;;;;;;;18.56;35.19;102578.72;10547541;28;20067;-75
2022/03/28 01:36:31;;;;;;;0.00;0.00;;;;;;;18.30;35.35;102571.22;10547429;28;20048;-75
2022/03/28 01:41:32;;;;;;;0.00;0.00;;;;;;;18.21;35.75;102560.59;10548402;28;20442;-75
2022/03/28 01:46:44;;;;;;;0.00;0.00;;;;;;;17.41;37.21;102560.56;10528887;28;20044;-75
2022/03/28 01:51:48;;;;;;;0.00;0.00;;;;;;;17.77;36.51;102554.44;10528857;28;20513;-75
2022/03/28 01:56:49;;;;;;;0.00;0.00;;;;;;;18.19;35.39;102541.44;10562396;28;20460;-75
2022/03/28 02:01:51;;;;;;;0.10;0.10;;;;;;;16.65;38.63;102549.91;10528516;28;20518;-76
2022/03/28 02:06:53;;;;;;;0.00;0.00;;;;;;;16.82;38.78;102537.38;10546360;28;20076;-75
2022/03/28 02:11:55;;;;;;;0.00;0.00;;;;;;;17.53;36.95;102533.03;10546078;28;20064;-75
2022/03/28 02:16:56;;;;;;;0.00;0.00;;;;;;;17.52;36.82;102541.69;10545740;28;20144;-76
2022/03/28 02:21:58;;;;;;;0.00;0.00;;;;;;;17.94;35.48;102527.84;10511170;28;20079;-76
2022/03/28 02:27:00;;;;;;;0.00;0.00;;;;;;;17.90;34.24;102516.47;10527719;28;20047;-76
2022/03/28 02:32:02;;;;;;;0.38;0.38;;;;;;;16.86;37.56;102517.50;10545394;28;20044;-75
2022/03/28 02:37:04;;;;;;;0.73;0.73;;;;;;;18.13;35.08;102496.97;10502334;28;20052;-75
2022/03/28 02:42:06;;;;;;;0.00;0.00;;;;;;;18.14;34.85;102491.78;10503863;28;20072;-76
2022/03/28 02:47:07;;;;;;;0.00;0.00;;;;;;;17.36;36.51;102494.44;10491042;28;20044;-76
2022/03/28 02:52:09;;;;;;;0.25;0.25;;;;;;;17.73;35.95;102487.44;10544637;28;20075;-75
2022/03/28 02:57:10;;;;;;;0.30;0.30;;;;;;;17.62;36.46;102475.91;10544754;28;20075;-74
2022/03/28 03:02:12;;;;;;;0.00;0.00;;;;;;;20.52;30.72;102463.03;10544159;28;20071;-77
2022/03/28 03:07:14;;;;;;;0.00;0.00;;;;;;;18.82;33.42;102466.91;10525693;28;20460;-76
2022/03/28 03:12:16;;;;;;;0.00;0.00;;;;;;;16.39;37.01;102474.66;10543818;28;20128;-76
2022/03/28 03:17:18;;;;;;;2.45;0.57;;;;;;;17.08;36.64;102472.97;10543531;28;20044;-76
2022/03/28 03:22:19;;;;;;;1.23;0.88;;;;;;;16.53;38.29;102461.13;10543486;28;20477;-76
2022/03/28 03:27:21;;;;;;;2.42;1.60;;;;;;;16.12;38.62;102449.63;10543038;28;20576;-76
2022/03/28 03:32:24;;;;;;;0.00;0.00;;;;;;;17.46;35.71;102437.34;10542235;28;20048;-76
2022/03/28 03:37:27;;;;;;;0.55;0.28;;;;;;;17.40;36.13;102441.56;10543859;28;20071;-76
2022/03/28 03:42:29;;;;;;;0.00;0.00;;;;;;;16.62;36.83;102437.94;10542838;28;20138;-75
2022/03/28 03:47:30;;;;;;;0.20;0.20;;;;;;;15.95;38.81;102436.19;10542456;28;20080;-75
2022/03/28 03:52:32;;;;;;;2.80;1.02;;;;;;;15.51;39.81;102428.84;10541639;28;20562;-75
2022/03/28 03:57:37;;;;;;;2.55;1.60;;;;;;;15.74;39.76;102420.84;10557764;28;20048;-75
2022/03/28 04:02:39;;;;;;;0.00;0.00;;;;;;;17.23;35.87;102433.38;10542186;28;20050;-77
2022/03/28 04:07:40;;;;;;;0.00;0.00;;;;;;;19.27;31.82;102428.44;10541615;28;20109;-77
2022/03/28 04:12:42;;;;;;;0.00;0.00;;;;;;;17.22;35.79;102438.56;10542279;28;20076;-76
2022/03/28 04:17:44;;;;;;;0.13;0.13;;;;;;;15.40;39.10;102430.22;10524061;28;20059;-76
2022/03/28 04:22:46;;;;;;;0.50;0.50;;;;;;;14.95;40.71;102435.72;10541114;28;20068;-76
2022/03/28 04:27:48;;;;;;;3.50;1.83;;;;;;;14.98;40.73;102441.03;10540818;28;20085;-76
2022/03/28 04:32:49;;;;;;;0.20;0.20;;;;;;;15.19;39.89;102436.53;10540743;28;20071;-76
2022/03/28 04:37:51;;;;;;;1.27;0.85;;;;;;;15.57;38.87;102437.63;10522654;28;20109;-76
2022/03/28 04:42:53;;;;;;;0.52;0.52;;;;;;;13.72;42.65;102435.78;10552413;28;20071;-76
2022/03/28 04:47:54;;;;;;;5.55;1.90;;;;;;;12.98;43.55;102447.59;10581678;28;20047;-76
2022/03/28 04:52:56;;;;;;;0.90;0.50;;;;;;;13.61;41.73;102446.59;10524062;28;20052;-75
2022/03/28 04:58:02;;;;;;;0.20;0.20;;;;;;;13.99;41.31;102438.50;10521887;28;20437;-76
2022/03/28 05:03:04;;;;;;;0.00;0.00;;;;;;;13.31;42.56;102443.69;10538431;28;20439;-77
2022/03/28 05:08:06;;;;;;;0.10;0.10;;;;;;;15.22;38.47;102425.34;10538878;28;20051;-76
2022/03/28 05:13:10;;;;;;;0.93;0.93;;;;;;;13.02;42.75;102433.94;10531408;28;20138;-77
2022/03/28 05:18:14;;;;;;;0.77;0.77;;;;;;;13.64;41.08;102441.56;10564043;28;20044;-77
2022/03/28 05:23:16;;;;;;;4.43;1.48;;;;;;;12.81;43.51;102420.13;10572846;28;20075;-76
2022/03/28 05:28:17;;;;;;;2.35;1.10;;;;;;;12.84;43.48;102430.63;10538920;28;20483;-77
2022/03/28 05:34:18;;;;;;;1.30;1.13;;;;;;;13.12;42.92;102419.66;10503878;28;20511;-76
2022/03/28 05:39:25;;;;;;;1.00;0.63;;;;;;;13.82;41.82;102404.19;10538970;28;20488;-77
2022/03/28 05:44:33;;;;;;;0.55;0.52;;;;;;;13.76;42.20;102398.78;10520236;28;20078;-77
2022/03/28 05:49:35;;;;;;;7.05;1.40;;;;;;;13.75;42.09;102399.63;10538763;28;20036;-75
2022/03/28 05:54:37;;;;;;;0.00;0.00;;;;;;;15.03;40.12;102403.13;10542755;28;20398;-75
2022/03/28 05:59:38;;;;;;;0.32;0.15;;;;;;;14.77;41.25;102405.78;10545900;28;20467;-75
2022/03/28 06:04:40;;;;;;;0.00;0.00;;;;;;;15.98;37.48;102396.38;10527732;28;20056;-77
2022/03/28 06:09:42;;;;;;;0.55;0.55;;;;;;;15.08;40.01;102411.91;10527617;28;20541;-74
2022/03/28 06:14:43;;;;;;;0.52;0.52;;;;;;;15.68;38.37;102399.84;10527537;28;20048;-76
2022/03/28 06:19:45;;;;;;;0.28;0.15;;;;;;;15.85;38.11;102403.84;10544352;28;20044;-76
2022/03/28 06:24:47;;;;;;;0.30;0.30;;;;;;;15.65;39.31;102399.78;10544838;28;20076;-75
2022/03/28 06:29:48;;;;;;;0.03;0.03;;;;;;;16.06;37.97;102402.69;10544915;28;20462;-75
2022/03/28 06:34:52;;;;;;;0.08;0.08;;;;;;;15.84;38.81;102402.09;10544576;28;20079;-76
2022/03/28 06:39:54;;;;;;;4.20;2.17;;;;;;;13.55;43.12;102420.50;10544271;28;20171;-78
2022/03/28 06:44:55;;;;;;;3.60;2.25;;;;;;;12.38;46.87;102425.28;10543419;28;20046;-76
2022/03/28 06:49:57;;;;;;;0.05;0.05;;;;;;;16.38;38.64;102418.25;10525968;28;20127;-77
2022/03/28 06:54:59;;;;;;;0.50;0.13;;;;;;;15.70;39.29;102405.97;10543059;28;20469;-76
2022/03/28 07:00:00;;;;;;;0.20;0.20;;;;;;;15.70;40.19;102400.78;10525172;28;20044;-76
2022/03/28 07:05:05;;;;;;;0.15;0.15;;;;;;;15.46;40.21;102388.84;10541453;28;20055;-77
2022/03/28 07:10:06;;;;;;;1.17;0.80;;;;;;;14.75;42.50;102386.69;10542966;28;20064;-77
2022/03/28 07:15:10;;;;;;;0.10;0.10;;;;;;;15.89;39.79;102378.84;10541543;28;20044;-76
2022/03/28 07:20:12;;;;;;;0.10;0.10;;;;;;;16.59;38.83;102378.03;10525001;28;20146;-76
2022/03/28 07:25:14;;;;;;;0.00;0.00;;;;;;;16.85;38.41;102364.75;10523120;28;20060;-76
2022/03/28 07:30:17;;;;;;;8.10;1.50;;;;;;;15.05;42.07;102362.53;10533090;28;20093;-76
2022/03/28 07:35:20;;;;;;;0.00;0.00;;;;;;;17.35;37.83;102362.44;10517403;28;20052;-76
2022/03/28 07:40:22;;;;;;;0.13;0.13;;;;;;;15.16;41.47;102379.28;10516478;28;20483;-76
2022/03/28 07:45:24;;;;;;;0.28;0.20;;;;;;;18.00;37.06;102368.94;10535674;28;20119;-76
2022/03/28 07:50:26;;;;;;;0.00;0.00;;;;;;;19.14;35.13;102359.47;10517912;28;20039;-76
2022/03/28 07:55:28;;;;;;;0.32;0.32;;;;;;;15.45;41.65;102358.50;10535621;28;20052;-77
2022/03/28 08:00:30;;;;;;;3.80;1.80;;;;;;;14.08;45.88;102357.63;10517367;28;20178;-77
2022/03/28 08:05:31;;;;;;;1.33;0.55;;;;;;;15.72;43.07;102354.94;10515168;28;20075;-77
2022/03/28 08:10:33;;;;;;;2.20;0.80;;;;;;;17.20;39.99;102336.06;10535158;28;20080;-77
2022/03/28 08:15:35;;;;;;;4.90;2.72;;;;;;;15.10;44.45;102347.97;10533986;28;20435;-76
2022/03/28 08:20:36;;;;;;;0.80;0.75;;;;;;;15.69;43.71;102334.97;10516485;28;20043;-75
2022/03/28 08:25:38;;;;;;;0.20;0.20;;;;;;;17.23;39.98;102333.53;10533914;28;20048;-75
2022/03/28 08:30:40;;;;;;;1.52;0.90;;;;;;;19.77;35.46;102324.50;10516016;28;20090;-76
2022/03/28 08:35:44;;;;;;;1.40;1.20;;;;;;;15.63;43.28;102339.09;10534515;28;20040;-76
2022/03/28 08:40:46;;;;;;;1.65;0.47;;;;;;;19.65;35.92;102310.41;10516701;28;20085;-75
2022/03/28 08:45:51;;;;;;;0.35;0.30;;;;;;;17.94;39.77;102316.66;10535091;28;20094;-75
2022/03/28 08:50:54;;;;;;;0.00;0.00;;;;;;;18.50;38.54;102312.41;10533480;28;20061;-74
2022/03/28 08:55:56;;;;;;;1.20;0.90;;;;;;;17.25;40.35;102318.78;10528811;28;20040;-76
2022/03/28 09:00:58;;;;;;;2.55;1.25;;;;;;;16.04;43.19;102321.19;10514715;28;20155;-77
2022/03/28 09:06:00;;;;;;;1.13;1.02;;;;;;;17.27;40.47;102322.31;10514573;28;20130;-77
2022/03/28 09:11:19;;;;;;;0.00;0.00;;;;;;;18.68;37.57;102320.50;10534115;28;20143;-76
2022/03/28 09:16:20;;;;;;;1.20;0.57;;;;;;;19.14;36.63;102322.03;10534175;28;20127;-76
2022/03/28 09:21:29;;;;;;;0.05;0.05;;;;;;;19.84;35.61;102315.88;10534467;28;20048;-76
2022/03/28 09:26:31;;;;;;;0.73;0.73;;;;;;;17.99;38.92;102320.25;10550247;28;20040;-77
2022/03/28 09:31:44;;;;;;;0.75;0.52;;;;;;;16.77;42.06;102316.03;10522113;28;20433;-77
2022/03/28 09:36:53;;;;;;;0.00;0.00;;;;;;;17.14;40.80;102305.53;10540465;28;20055;-77
2022/03/28 09:41:58;;;;;;;0.15;0.15;;;;;;;16.70;43.05;102303.72;10521347;28;20092;-76
2022/03/28 09:47:17;;;;;;;0.00;0.00;;;;;;;18.42;39.42;102287.91;10539876;28;20052;-76
2022/03/28 09:52:22;;;;;;;0.13;0.13;;;;;;;17.43;40.74;102293.13;10521244;28;20040;-76
2022/03/28 09:57:32;;;;;;;0.20;0.20;;;;;;;19.38;38.05;102268.31;10521167;28;20508;-76
2022/03/28 10:02:36;;;;;;;0.43;0.43;;;;;;;19.82;37.60;102267.88;10540054;28;20044;-76
2022/03/28 10:07:38;;;;;;;0.93;0.93;;;;;;;19.03;38.54;102259.19;10540058;28;20109;-76
2022/03/28 10:12:40;;;;;;;1.08;0.95;;;;;;;17.62;41.25;102263.94;10520557;28;20056;-75
2022/03/28 10:17:43;;;;;;;1.17;1.08;;;;;;;17.41;41.88;102263.56;10538637;28;20083;-77
2022/03/28 10:22:50;;;;;;;2.65;1.52;;;;;;;18.87;38.33;102258.09;10520667;28;20048;-77
2022/03/28 10:27:53;;;;;;;0.77;0.52;;;;;;;18.86;39.76;102253.75;10537552;28;20125;-77
2022/03/28 10:33:09;;;;;;;3.53;2.13;;;;;;;16.65;44.01;102238.56;10537746;28;20503;-77
2022/03/28 10:38:16;;;;;;;0.10;0.10;;;;;;;19.64;38.15;102234.59;10538258;28;20032;-77
2022/03/28 10:43:18;;;;;;;2.88;2.33;;;;;;;18.80;39.38;102233.63;10539552;28;20455;-77
2022/03/28 10:48:58;;;;;;;0.38;0.38;;;;;;;20.23;36.86;102233.34;10520259;28;20132;-77
2022/03/28 10:54:06;;;;;;;0.00;0.00;;;;;;;21.94;33.86;102215.59;10492068;28;20139;-77
2022/03/28 10:59:11;;;;;;;1.80;0.90;;;;;;;19.88;36.97;102228.72;10538270;28;20048;-77
2022/03/28 11:04:15;;;;;;;3.90;2.22;;;;;;;19.94;37.75;102218.31;10537898;28;20044;-76
2022/03/28 11:09:41;;;;;;;4.03;1.75;;;;;;;20.38;37.05;102208.13;10538441;28;20067;-76
2022/03/28 11:14:49;;;;;;;3.78;0.93;;;;;;;21.47;35.18;102201.56;10535712;28;20052;-76
2022/03/28 11:20:18;;;;;;;4.95;2.55;;;;;;;18.36;42.08;102211.28;10519840;28;20036;-76
2022/03/28 11:25:38;;;;;;;3.63;2.55;;;;;;;18.06;41.55;102202.16;10536332;28;20051;-76
2022/03/28 11:30:52;;;;;;;1.92;1.48;;;;;;;19.34;39.10;102199.47;10518115;28;20042;-77
2022/03/28 11:36:02;;;;;;;2.75;1.30;;;;;;;21.54;34.70;102180.63;10537033;28;20083;-76
2022/03/28 11:41:04;;;;;;;0.60;0.37;;;;;;;21.33;35.63;102175.34;10535971;28;20076;-76
2022/03/28 11:46:21;;;;;;;3.22;1.67;;;;;;;21.77;34.42;102177.16;10536798;28;20040;-76
2022/03/28 11:51:28;;;;;;;0.68;0.68;;;;;;;23.07;33.88;102150.44;10535218;28;20068;-76
2022/03/28 11:56:31;;;;;;;2.10;1.65;;;;;;;22.93;32.37;102149.66;10552329;28;20054;-77
2022/03/28 12:01:38;;;;;;;0.25;0.25;;;;;;;25.23;29.29;102134.97;10518024;28;20052;-76
2022/03/28 12:06:39;;;;;;;0.13;0.13;;;;;;;23.43;32.70;102134.44;10535704;28;20052;-76
2022/03/28 12:11:48;;;;;;;4.85;1.95;;;;;;;23.80;33.35;102125.31;10534741;28;20120;-77
2022/03/28 12:16:52;;;;;;;2.88;1.40;;;;;;;22.55;34.67;102124.47;10517053;28;20079;-76
2022/03/28 12:21:56;;;;;;;0.10;0.10;;;;;;;25.51;29.45;102095.81;10535360;28;20441;-76
2022/03/28 12:27:00;;;;;;;3.67;2.33;;;;;;;24.02;32.94;102087.38;10517941;28;20056;-76
2022/03/28 12:32:03;;;;;;;3.83;1.55;;;;;;;23.79;33.03;102082.38;10534724;28;20139;-76
2022/03/28 12:37:05;;;;;;;1.70;1.05;;;;;;;24.99;30.92;102069.41;10518846;28;20040;-76
2022/03/28 12:42:06;;;;;;;4.13;1.88;;;;;;;23.64;32.00;102070.25;10533884;28;20127;-76
2022/03/28 12:47:08;;;;;;;1.25;0.88;;;;;;;26.62;28.85;102057.53;10515880;28;20079;-75
2022/03/28 12:52:14;;;;;;;6.43;2.28;;;;;;;23.93;31.82;102055.94;10532941;28;20044;-77
2022/03/28 12:57:25;;;;;;;0.00;0.00;;;;;;;27.65;26.58;102028.47;10516040;28;20043;-76
2022/03/28 13:02:27;;;;;;;0.08;0.08;;;;;;;26.95;27.49;102028.56;10531835;28;20075;-76
2022/03/28 13:07:30;;;;;;;2.45;1.75;;;;;;;23.77;32.34;102032.41;10516639;28;20071;-77
2022/03/28 13:12:38;;;;;;;0.93;0.50;;;;;;;26.84;27.91;102015.59;10501043;28;20036;-77
2022/03/28 13:17:46;;;;;;;0.28;0.28;;;;;;;26.24;27.55;102012.56;10523990;28;20042;-76
2022/03/28 13:22:48;;;;;;;3.50;1.42;;;;;;;25.17;29.54;101994.41;10510183;28;20036;-77
2022/03/28 13:28:02;;;;;;;14.80;3.97;;;;;;;25.46;30.19;102000.06;10544026;28;20523;-77
2022/03/28 13:33:05;;;;;;;0.10;0.10;;;;;;;28.95;25.28;101981.22;10524820;28;20043;-76
2022/03/28 13:38:11;;;;;;;5.95;2.00;;;;;;;23.65;32.06;101990.41;10478879;28;1023029;-77
2022/03/28 13:43:12;;;;;;;0.22;0.10;;;;;;;27.44;26.42;101970.84;10528659;28;20127;-81
2022/03/28 13:48:16;;;;;;;4.65;1.55;;;;;;;25.53;29.78;101964.75;10508706;28;20558;-81
2022/03/28 13:53:17;;;;;;;7.93;3.33;;;;;;;24.90;29.56;101961.50;10530330;28;20115;-81
2022/03/28 13:58:19;;;;;;;3.50;1.05;;;;;;;25.04;30.10;101955.97;10527002;28;20047;-81
2022/03/28 14:03:21;;;;;;;3.22;1.77;;;;;;;23.51;31.18;101955.50;10502894;28;20127;-81
2022/03/28 14:08:23;;;;;;;0.32;0.32;;;;;;;25.01;28.73;101943.72;10529098;28;20051;-80
2022/03/28 14:13:24;;;;;;;5.18;1.65;;;;;;;23.91;30.98;101949.78;10534670;28;20135;-79
2022/03/28 14:18:26;;;;;;;0.10;0.10;;;;;;;25.39;29.78;101941.31;10538545;28;20457;-80
2022/03/28 14:23:28;;;;;;;1.65;1.17;;;;;;;24.17;31.79;101940.66;10532543;28;20123;-82
2022/03/28 14:28:30;;;;;;;2.63;0.55;;;;;;;25.87;27.84;101934.13;10535591;28;20059;-81
2022/03/28 14:33:32;;;;;;;2.75;1.60;;;;;;;25.16;28.82;101928.50;10534362;28;20122;-81
2022/03/28 14:38:34;;;;;;;2.50;0.70;;;;;;;24.81;28.91;101924.75;10518424;28;20132;-81
2022/03/28 14:43:38;;;;;;;4.40;1.75;;;;;;;25.35;29.42;101914.06;10536349;28;20076;-81
2022/03/28 14:48:39;;;;;;;5.95;1.08;;;;;;;25.28;28.79;101907.16;10520032;28;20402;-80
2022/03/28 14:53:42;;;;;;;0.00;0.00;;;;;;;27.14;25.83;101892.31;10524164;28;20166;-81
2022/03/28 14:58:44;;;;;;;0.75;0.65;;;;;;;24.52;27.86;101894.50;10533886;28;20101;-80
2022/03/28 15:03:48;;;;;;;1.15;1.05;;;;;;;25.43;27.14;101884.06;10532931;28;20123;-80
2022/03/28 15:08:50;;;;;;;5.40;1.67;;;;;;;24.37;28.84;101875.41;10533855;28;20043;-80
2022/03/28 15:13:51;;;;;;;1.75;1.15;;;;;;;25.68;27.03;101862.41;10511453;28;20150;-81
2022/03/28 15:18:53;;;;;;;0.38;0.30;;;;;;;25.52;26.47;101865.38;10534605;28;20036;-80
2022/03/28 15:23:55;;;;;;;0.52;0.40;;;;;;;25.35;25.93;101865.72;10537394;28;20079;-80
2022/03/28 15:28:57;;;;;;;0.20;0.20;;;;;;;25.66;26.55;101849.25;10527765;28;20044;-80
2022/03/28 15:34:04;;;;;;;2.17;1.10;;;;;;;25.05;26.78;101851.41;10528741;28;20059;-80
2022/03/28 15:39:07;;;;;;;0.20;0.20;;;;;;;26.16;24.01;101841.09;10545641;28;20113;-80
2022/03/28 15:44:10;;;;;;;1.25;0.82;;;;;;;24.91;25.91;101841.97;10540279;28;20613;-81
2022/03/28 15:49:16;;;;;;;2.90;0.70;;;;;;;25.24;24.75;101847.47;10533196;28;20123;-79
2022/03/28 15:54:18;;;;;;;0.00;0.00;;;;;;;25.32;26.49;101840.28;10515723;28;20048;-80
2022/03/28 15:59:20;;;;;;;2.08;0.40;;;;;;;25.64;26.07;101836.13;10531566;28;20450;-80
2022/03/28 16:04:23;;;;;;;0.50;0.35;;;;;;;24.61;26.56;101831.06;10529721;28;20044;-80
2022/03/28 16:09:25;;;;;;;3.88;0.93;;;;;;;24.67;25.95;101823.13;10529145;28;20128;-79
2022/03/28 16:14:26;;;;;;;0.88;0.88;;;;;;;25.61;25.37;101830.03;10520240;28;20040;-80
2022/03/28 16:19:28;;;;;;;0.00;0.00;;;;;;;26.22;24.09;101829.47;10513510;28;20134;-80
2022/03/28 16:24:31;;;;;;;0.20;0.20;;;;;;;25.56;24.27;101822.22;10531786;28;20075;-81
2022/03/28 16:29:32;;;;;;;1.77;0.57;;;;;;;24.91;26.12;101823.53;10514011;28;20047;-81
2022/03/28 16:34:34;;;;;;;2.55;0.40;;;;;;;25.84;23.22;101813.66;10530222;28;20368;-81
2022/03/28 16:39:36;;;;;;;4.85;0.85;;;;;;;24.16;26.73;101807.31;10546705;28;20144;-80
2022/03/28 16:44:38;;;;;;;0.00;0.00;;;;;;;24.23;25.51;101804.53;10528698;28;20089;-79
2022/03/28 16:49:40;;;;;;;1.08;0.98;;;;;;;24.76;25.29;101797.50;10552704;27;20086;-80
2022/03/28 16:54:41;;;;;;;0.13;0.13;;;;;;;24.28;26.78;101785.13;10529702;28;20123;-81
2022/03/28 16:59:43;;;;;;;0.20;0.20;;;;;;;26.54;24.27;101781.13;10501354;28;20501;-80
2022/03/28 17:04:45;;;;;;;0.00;0.00;;;;;;;26.83;23.87;101775.94;10525603;28;20118;-80
2022/03/28 17:09:46;;;;;;;1.00;0.35;;;;;;;24.70;27.86;101775.63;10521082;28;20048;-80
2022/03/28 17:14:49;;;;;;;2.28;1.65;;;;;;;24.37;28.15;101767.44;10527001;28;20135;-81
2022/03/28 17:19:52;;;;;;;0.10;0.10;;;;;;;25.19;27.50;101757.06;10520585;28;20433;-80
2022/03/28 17:24:54;;;;;;;0.00;0.00;;;;;;;27.07;24.50;101756.72;10523893;28;20040;-81
2022/03/28 17:29:56;;;;;;;0.00;0.00;;;;;;;26.54;24.40;101757.34;10521437;28;20117;-80
2022/03/28 17:34:57;;;;;;;0.00;0.00;;;;;;;27.45;23.68;101753.81;10529069;28;20127;-80
2022/03/28 17:40:01;;;;;;;0.00;0.00;;;;;;;27.67;23.51;101743.41;10528694;28;20052;-80
2022/03/28 17:45:03;;;;;;;0.00;0.00;;;;;;;28.57;21.36;101744.78;10510696;28;20097;-80
2022/03/28 17:50:05;;;;;;;0.00;0.00;;;;;;;28.68;21.70;101737.31;10514551;28;20060;-80
2022/03/28 17:55:07;;;;;;;0.00;0.00;;;;;;;29.49;20.89;101728.94;10536628;28;20055;-80
2022/03/28 18:00:09;;;;;;;1.05;1.00;;;;;;;28.92;20.90;101729.38;10532297;28;20105;-80
2022/03/28 18:05:12;;;;;;;0.20;0.15;;;;;;;23.71;30.00;101732.56;10530395;28;20052;-80
2022/03/28 18:10:13;;;;;;;0.00;0.00;;;;;;;27.78;23.33;101723.66;10531149;28;20115;-80
2022/03/28 18:15:19;;;;;;;0.00;0.00;;;;;;;25.08;26.46;101737.97;10510233;28;20135;-80
2022/03/28 18:20:21;;;;;;;0.00;0.00;;;;;;;24.55;27.61;101731.09;10531616;28;20132;-80
2022/03/28 18:25:25;;;;;;;0.00;0.00;;;;;;;27.64;24.01;101716.19;10521195;28;20130;-80
2022/03/28 18:30:27;;;;;;;0.00;0.00;;;;;;;27.21;23.94;101727.22;10535035;28;20044;-78
2022/03/28 18:35:29;;;;;;;0.00;0.00;;;;;;;26.78;24.25;101741.69;10533751;28;20042;-79
2022/03/28 18:40:30;;;;;;;0.00;0.00;;;;;;;27.04;23.13;101748.00;10554446;27;20123;-79
2022/03/28 18:45:33;;;;;;;0.00;0.00;;;;;;;26.58;24.21;101750.19;10522007;28;20046;-80
2022/03/28 18:50:35;;;;;;;0.00;0.00;;;;;;;26.38;24.30;101753.38;10529805;28;20131;-80
2022/03/28 18:55:41;;;;;;;0.00;0.00;;;;;;;26.66;24.07;101755.25;10529125;28;20062;-80
2022/03/28 19:00:42;;;;;;;0.00;0.00;;;;;;;26.81;23.94;101752.19;10535416;28;20491;-79
2022/03/28 19:06:05;;;;;;;0.00;0.00;;;;;;;25.92;25.10;101756.28;10530551;28;20139;-79
2022/03/28 19:11:07;;;;;;;0.00;0.00;;;;;;;25.34;25.61;101756.72;10517046;28;20048;-80
2022/03/28 19:16:30;;;;;;;0.00;0.00;;;;;;;26.61;24.01;101747.44;10532173;28;20036;-80
2022/03/28 19:21:33;;;;;;;0.00;0.00;;;;;;;26.40;23.54;101752.41;10527966;28;20483;-79
2022/03/28 19:26:38;;;;;;;0.00;0.00;;;;;;;26.69;23.69;101748.09;10532220;28;20131;-79
2022/03/28 19:31:39;;;;;;;0.00;0.00;;;;;;;26.63;23.49;101740.34;10533201;28;20128;-79
2022/03/28 19:36:43;;;;;;;0.00;0.00;;;;;;;26.34;24.35;101730.56;10532743;28;20487;-81
2022/03/28 19:41:44;;;;;;;0.00;0.00;;;;;;;26.52;23.76;101719.50;10519569;28;20498;-79
2022/03/28 19:46:48;;;;;;;0.00;0.00;;;;;;;25.31;24.65;101722.50;10517813;28;20222;-79
2022/03/28 19:51:52;;;;;;;0.00;0.00;;;;;;;23.24;28.04;101716.56;10537116;28;20368;-74
2022/03/28 19:57:13;;;;;;;0.00;0.00;;;;;;;21.85;30.89;101716.34;10541720;28;20380;-74
2022/03/28 20:02:16;;;;;;;0.10;0.10;;;;;;;21.83;31.03;101710.22;10542046;28;20048;-74
2022/03/28 20:07:20;;;;;;;0.00;0.00;;;;;;;24.54;26.99;101703.00;10540338;28;20048;-74
2022/03/28 20:12:22;;;;;;;0.00;0.00;;;;;;;24.27;27.07;101705.28;10539661;28;20075;-75
2022/03/28 20:17:24;;;;;;;0.13;0.13;;;;;;;22.35;29.97;101708.00;10541297;28;20044;-75
2022/03/28 20:22:27;;;;;;;0.00;0.00;;;;;;;23.83;28.31;101699.88;10541032;28;20191;-75
2022/03/28 20:27:33;;;;;;;0.00;0.00;;;;;;;22.78;29.74;101696.16;10540823;28;20048;-75
2022/03/28 20:32:35;;;;;;;0.45;0.45;;;;;;;21.57;32.34;101697.31;10522991;28;20110;-75
2022/03/28 20:37:37;;;;;;;0.00;0.00;;;;;;;22.56;30.51;101692.91;10540349;28;20459;-76
2022/03/28 20:42:44;;;;;;;0.30;0.20;;;;;;;21.56;31.88;101693.78;10522284;28;20048;-77
2022/03/28 20:47:46;;;;;;;0.00;0.00;;;;;;;22.01;31.42;101687.31;10523368;28;20454;-76
2022/03/28 20:52:48;;;;;;;0.00;0.00;;;;;;;22.67;30.29;101693.66;10540146;28;20111;-76
2022/03/28 20:57:49;;;;;;;0.45;0.30;;;;;;;21.34;32.42;101694.78;10540378;28;20040;-76
2022/03/28 21:02:51;;;;;;;0.38;0.38;;;;;;;20.23;35.22;101702.19;10539942;28;20072;-76
2022/03/28 21:07:53;;;;;;;3.05;2.45;;;;;;;19.83;36.49;101696.97;10539839;28;20048;-75
2022/03/28 21:12:55;;;;;;;1.15;1.05;;;;;;;20.43;34.73;101690.81;10521635;28;20071;-75
2022/03/28 21:17:58;;;;;;;0.47;0.47;;;;;;;21.01;33.79;101675.78;10540054;28;20056;-75
2022/03/28 21:23:02;;;;;;;1.10;0.30;;;;;;;22.20;31.61;101674.88;10491534;28;20045;-76
2022/03/28 21:28:06;;;;;;;0.00;0.00;;;;;;;22.18;31.73;101674.91;10538294;28;20119;-75
2022/03/28 21:33:07;;;;;;;0.00;0.00;;;;;;;22.53;30.90;101671.94;10547762;28;20072;-76
2022/03/28 21:38:09;;;;;;;0.00;0.00;;;;;;;22.12;31.21;101674.97;10547577;28;20078;-76
2022/03/28 21:43:10;;;;;;;0.00;0.00;;;;;;;21.74;32.04;101668.31;10545379;28;20040;-76
2022/03/28 21:48:12;;;;;;;0.00;0.00;;;;;;;21.15;32.49;101668.72;10547319;28;20123;-76
2022/03/28 21:53:14;;;;;;;2.53;1.80;;;;;;;19.43;35.95;101676.03;10546754;28;20462;-75
2022/03/28 21:58:16;;;;;;;0.47;0.38;;;;;;;19.99;34.97;101678.69;10546712;28;20048;-76
2022/03/28 22:03:19;;;;;;;1.48;0.95;;;;;;;20.04;34.75;101676.94;10546526;28;20075;-76
2022/03/28 22:08:22;;;;;;;0.30;0.30;;;;;;;20.49;34.13;101677.72;10546253;28;20076;-76
2022/03/28 22:13:23;;;;;;;0.00;0.00;;;;;;;20.56;34.02;101679.44;10528139;28;20071;-76
2022/03/28 22:18:25;;;;;;;0.82;0.80;;;;;;;20.05;34.63;101686.53;10545993;28;20048;-75
2022/03/28 22:23:26;;;;;;;0.40;0.40;;;;;;;19.62;35.42;101683.00;10545734;28;20044;-76
2022/03/28 22:28:28;;;;;;;3.65;2.30;;;;;;;18.71;37.19;101673.19;10545233;28;20072;-76
2022/03/28 22:40:06;;;;;;;0.32;0.32;;;;;;;19.56;35.94;101667.31;10509913;28;20035;-76
2022/03/28 22:45:10;;;;;;;0.08;0.08;;;;;;;20.64;33.57;101660.22;10527491;28;20411;-79
2022/03/28 22:50:13;;;;;;;0.00;0.00;;;;;;;20.56;33.61;101652.38;10540087;28;20042;-80
2022/03/28 22:55:14;;;;;;;1.92;1.08;;;;;;;18.93;37.16;101660.25;10540919;28;20032;-81
2022/03/28 23:00:16;;;;;;;0.10;0.10;;;;;;;19.50;35.57;101656.88;10538647;28;20047;-80
2022/03/28 23:05:18;;;;;;;0.38;0.30;;;;;;;19.60;35.35;101657.75;10551951;28;20533;-80
2022/03/28 23:10:19;;;;;;;4.05;2.03;;;;;;;18.89;36.73;101653.22;10559745;28;20075;-81
2022/03/28 23:15:21;;;;;;;1.55;1.20;;;;;;;19.22;36.36;101649.00;10552428;28;20040;-79
2022/03/28 23:20:25;;;;;;;2.17;1.30;;;;;;;18.02;38.63;101659.75;10542477;28;20076;-79